sensor_id;sensor_type;location;lat;lon;timestamp;P1;durP1;ratioP1;P2;durP2;ratioP2
2177;SDS011;1095;50.992;6.798;2022-11-15T00:00:13;19.25;;;14.40;;
2177;SDS011;1095;50.992;6.798;2022-11-15T00:02:40;19.70;;;14.45;;
2177;SDS011;1095;50.992;6.798;2022-11-15T00:05:07;19.27;;;13.73;;
2177;SDS011;1095;50.992;6.798;2022-11-15T00:07:35;20.30;;;14.40;;
2177;SDS011;1095;50.992;6.798;2022-11-15T00:10:02;19.83;;;13.73;;
2177;SDS011;1095;50.992;6.798;2022-11-15T00:12:29;19.33;;;14.82;;
2177;SDS011;1095;50.992;6.798;2022-11-15T00:14:55;21.15;;;14.57;;
2177;SDS011;1095;50.992;6.798;2022-11-15T00:17:22;19.55;;;13.15;;
2177;SDS011;1095;50.992;6.798;2022-11-15T00:19:48;19.95;;;13.75;;
2177;SDS011;1095;50.992;6.798;2022-11-15T00:22:15;17.95;;;13.30;;
2177;SDS011;1095;50.992;6.798;2022-11-15T00:24:43;20.58;;;14.02;;
2177;SDS011;1095;50.992;6.798;2022-11-15T00:27:10;21.67;;;14.45;;
2177;SDS011;1095;50.992;6.798;2022-11-15T00:29:36;20.40;;;13.77;;
2177;SDS011;1095;50.992;6.798;2022-11-15T00:32:03;19.38;;;13.23;;
2177;SDS011;1095;50.992;6.798;2022-11-15T00:34:30;21.33;;;14.45;;
2177;SDS011;1095;50.992;6.798;2022-11-15T00:36:59;22.27;;;13.93;;
2177;SDS011;1095;50.992;6.798;2022-11-15T00:39:26;22.23;;;13.40;;
2177;SDS011;1095;50.992;6.798;2022-11-15T00:41:54;19.02;;;13.98;;
2177;SDS011;1095;50.992;6.798;2022-11-15T00:44:20;19.77;;;12.88;;
2177;SDS011;1095;50.992;6.798;2022-11-15T00:46:47;17.30;;;13.50;;
2177;SDS011;1095;50.992;6.798;2022-11-15T00:49:17;17.45;;;13.95;;
2177;SDS011;1095;50.992;6.798;2022-11-15T00:51:44;22.52;;;13.85;;
2177;SDS011;1095;50.992;6.798;2022-11-15T00:54:11;19.92;;;13.73;;
2177;SDS011;1095;50.992;6.798;2022-11-15T00:56:37;18.40;;;13.23;;
2177;SDS011;1095;50.992;6.798;2022-11-15T00:59:08;20.90;;;14.50;;
2177;SDS011;1095;50.992;6.798;2022-11-15T01:01:35;17.50;;;13.68;;
2177;SDS011;1095;50.992;6.798;2022-11-15T01:04:01;21.52;;;13.30;;
2177;SDS011;1095;50.992;6.798;2022-11-15T01:06:28;18.50;;;13.45;;
2177;SDS011;1095;50.992;6.798;2022-11-15T01:08:55;20.63;;;14.20;;
2177;SDS011;1095;50.992;6.798;2022-11-15T01:11:21;17.70;;;12.90;;
2177;SDS011;1095;50.992;6.798;2022-11-15T01:13:48;20.83;;;13.05;;
2177;SDS011;1095;50.992;6.798;2022-11-15T01:16:16;20.23;;;13.43;;
2177;SDS011;1095;50.992;6.798;2022-11-15T01:18:44;19.02;;;13.80;;
2177;SDS011;1095;50.992;6.798;2022-11-15T01:21:12;20.75;;;13.10;;
2177;SDS011;1095;50.992;6.798;2022-11-15T01:23:40;18.42;;;13.07;;
2177;SDS011;1095;50.992;6.798;2022-11-15T01:26:08;19.35;;;12.88;;
2177;SDS011;1095;50.992;6.798;2022-11-15T01:28:38;18.80;;;13.13;;
2177;SDS011;1095;50.992;6.798;2022-11-15T01:31:09;19.23;;;12.75;;
2177;SDS011;1095;50.992;6.798;2022-11-15T01:33:39;16.73;;;12.63;;
2177;SDS011;1095;50.992;6.798;2022-11-15T01:36:06;23.65;;;13.40;;
2177;SDS011;1095;50.992;6.798;2022-11-15T01:38:35;21.08;;;13.63;;
2177;SDS011;1095;50.992;6.798;2022-11-15T01:41:02;23.90;;;13.52;;
2177;SDS011;1095;50.992;6.798;2022-11-15T01:43:30;18.30;;;13.13;;
2177;SDS011;1095;50.992;6.798;2022-11-15T01:45:58;18.35;;;14.30;;
2177;SDS011;1095;50.992;6.798;2022-11-15T01:48:30;21.35;;;14.30;;
2177;SDS011;1095;50.992;6.798;2022-11-15T01:51:01;17.38;;;13.27;;
2177;SDS011;1095;50.992;6.798;2022-11-15T01:53:33;17.77;;;13.27;;
2177;SDS011;1095;50.992;6.798;2022-11-15T01:56:18;22.05;;;14.20;;
2177;SDS011;1095;50.992;6.798;2022-11-15T01:58:47;19.83;;;14.60;;
2177;SDS011;1095;50.992;6.798;2022-11-15T02:01:14;21.00;;;13.50;;
2177;SDS011;1095;50.992;6.798;2022-11-15T02:03:41;21.75;;;14.48;;
2177;SDS011;1095;50.992;6.798;2022-11-15T02:06:16;21.83;;;12.98;;
2177;SDS011;1095;50.992;6.798;2022-11-15T02:08:42;18.05;;;12.80;;
2177;SDS011;1095;50.992;6.798;2022-11-15T02:11:10;21.10;;;14.05;;
2177;SDS011;1095;50.992;6.798;2022-11-15T02:13:37;22.65;;;14.10;;
2177;SDS011;1095;50.992;6.798;2022-11-15T02:16:05;20.00;;;13.77;;
2177;SDS011;1095;50.992;6.798;2022-11-15T02:18:41;20.35;;;13.60;;
2177;SDS011;1095;50.992;6.798;2022-11-15T02:21:18;18.23;;;13.23;;
2177;SDS011;1095;50.992;6.798;2022-11-15T02:24:02;17.40;;;14.00;;
2177;SDS011;1095;50.992;6.798;2022-11-15T02:29:52;16.77;;;12.95;;
2177;SDS011;1095;50.992;6.798;2022-11-15T02:32:32;22.48;;;14.13;;
2177;SDS011;1095;50.992;6.798;2022-11-15T02:35:08;21.00;;;13.38;;
2177;SDS011;1095;50.992;6.798;2022-11-15T02:37:43;18.60;;;13.82;;
2177;SDS011;1095;50.992;6.798;2022-11-15T02:40:21;17.67;;;13.68;;
2177;SDS011;1095;50.992;6.798;2022-11-15T02:42:54;19.13;;;13.40;;
2177;SDS011;1095;50.992;6.798;2022-11-15T02:45:41;18.10;;;12.55;;
2177;SDS011;1095;50.992;6.798;2022-11-15T02:48:13;19.05;;;13.27;;
2177;SDS011;1095;50.992;6.798;2022-11-15T02:50:42;17.63;;;12.88;;
2177;SDS011;1095;50.992;6.798;2022-11-15T02:53:09;16.27;;;13.27;;
2177;SDS011;1095;50.992;6.798;2022-11-15T02:55:37;17.55;;;13.48;;
2177;SDS011;1095;50.992;6.798;2022-11-15T02:58:13;21.00;;;13.45;;
2177;SDS011;1095;50.992;6.798;2022-11-15T03:00:58;16.63;;;12.90;;
2177;SDS011;1095;50.992;6.798;2022-11-15T03:03:36;16.83;;;12.32;;
2177;SDS011;1095;50.992;6.798;2022-11-15T03:06:14;17.70;;;14.27;;
2177;SDS011;1095;50.992;6.798;2022-11-15T03:08:51;19.10;;;12.90;;
2177;SDS011;1095;50.992;6.798;2022-11-15T03:11:29;17.65;;;13.25;;
2177;SDS011;1095;50.992;6.798;2022-11-15T03:13:58;18.48;;;13.25;;
2177;SDS011;1095;50.992;6.798;2022-11-15T03:16:30;16.67;;;13.48;;
2177;SDS011;1095;50.992;6.798;2022-11-15T03:21:35;19.50;;;12.25;;
2177;SDS011;1095;50.992;6.798;2022-11-15T03:24:05;21.10;;;13.40;;
2177;SDS011;1095;50.992;6.798;2022-11-15T03:26:35;19.75;;;13.63;;
2177;SDS011;1095;50.992;6.798;2022-11-15T03:29:08;18.92;;;13.10;;
2177;SDS011;1095;50.992;6.798;2022-11-15T03:31:42;18.95;;;13.27;;
2177;SDS011;1095;50.992;6.798;2022-11-15T03:34:19;20.58;;;13.70;;
2177;SDS011;1095;50.992;6.798;2022-11-15T03:36:55;20.33;;;13.85;;
2177;SDS011;1095;50.992;6.798;2022-11-15T03:39:28;20.63;;;13.88;;
2177;SDS011;1095;50.992;6.798;2022-11-15T03:41:57;17.63;;;12.88;;
2177;SDS011;1095;50.992;6.798;2022-11-15T03:44:36;19.15;;;13.35;;
2177;SDS011;1095;50.992;6.798;2022-11-15T03:47:09;16.23;;;12.93;;
2177;SDS011;1095;50.992;6.798;2022-11-15T03:49:42;15.80;;;12.38;;
2177;SDS011;1095;50.992;6.798;2022-11-15T03:52:12;16.08;;;11.95;;
2177;SDS011;1095;50.992;6.798;2022-11-15T03:54:51;15.77;;;12.48;;
2177;SDS011;1095;50.992;6.798;2022-11-15T03:57:23;17.20;;;12.10;;
2177;SDS011;1095;50.992;6.798;2022-11-15T03:59:49;15.73;;;11.82;;
2177;SDS011;1095;50.992;6.798;2022-11-15T04:02:16;18.08;;;12.05;;
2177;SDS011;1095;50.992;6.798;2022-11-15T04:04:44;18.25;;;12.18;;
2177;SDS011;1095;50.992;6.798;2022-11-15T04:07:10;14.95;;;11.60;;
2177;SDS011;1095;50.992;6.798;2022-11-15T04:09:37;16.08;;;12.30;;
2177;SDS011;1095;50.992;6.798;2022-11-15T04:12:24;19.58;;;12.05;;
2177;SDS011;1095;50.992;6.798;2022-11-15T04:14:57;17.67;;;12.85;;
2177;SDS011;1095;50.992;6.798;2022-11-15T04:17:37;15.68;;;12.13;;
2177;SDS011;1095;50.992;6.798;2022-11-15T04:20:07;16.55;;;11.90;;
2177;SDS011;1095;50.992;6.798;2022-11-15T04:22:52;18.35;;;12.15;;
2177;SDS011;1095;50.992;6.798;2022-11-15T04:25:35;14.73;;;11.18;;
2177;SDS011;1095;50.992;6.798;2022-11-15T04:28:02;14.40;;;10.93;;
2177;SDS011;1095;50.992;6.798;2022-11-15T04:30:29;14.43;;;10.57;;
2177;SDS011;1095;50.992;6.798;2022-11-15T04:32:56;14.88;;;11.30;;
2177;SDS011;1095;50.992;6.798;2022-11-15T04:35:24;15.80;;;11.43;;
2177;SDS011;1095;50.992;6.798;2022-11-15T04:37:50;18.83;;;11.90;;
2177;SDS011;1095;50.992;6.798;2022-11-15T04:40:17;15.70;;;11.07;;
2177;SDS011;1095;50.992;6.798;2022-11-15T04:42:44;14.13;;;10.75;;
2177;SDS011;1095;50.992;6.798;2022-11-15T04:45:11;15.80;;;11.45;;
2177;SDS011;1095;50.992;6.798;2022-11-15T04:47:37;14.68;;;11.23;;
2177;SDS011;1095;50.992;6.798;2022-11-15T04:50:04;14.07;;;11.20;;
2177;SDS011;1095;50.992;6.798;2022-11-15T04:52:33;14.13;;;10.93;;
2177;SDS011;1095;50.992;6.798;2022-11-15T04:54:59;16.90;;;10.65;;
2177;SDS011;1095;50.992;6.798;2022-11-15T04:57:26;13.70;;;10.60;;
2177;SDS011;1095;50.992;6.798;2022-11-15T04:59:53;15.07;;;11.20;;
2177;SDS011;1095;50.992;6.798;2022-11-15T05:02:19;15.50;;;10.38;;
2177;SDS011;1095;50.992;6.798;2022-11-15T05:04:46;15.82;;;11.35;;
2177;SDS011;1095;50.992;6.798;2022-11-15T05:07:12;13.27;;;10.63;;
2177;SDS011;1095;50.992;6.798;2022-11-15T05:09:40;15.25;;;11.30;;
2177;SDS011;1095;50.992;6.798;2022-11-15T05:12:06;14.93;;;11.55;;
2177;SDS011;1095;50.992;6.798;2022-11-15T05:14:33;14.65;;;10.82;;
2177;SDS011;1095;50.992;6.798;2022-11-15T05:16:59;14.90;;;11.30;;
2177;SDS011;1095;50.992;6.798;2022-11-15T05:19:26;15.77;;;10.98;;
2177;SDS011;1095;50.992;6.798;2022-11-15T05:21:53;16.50;;;10.98;;
2177;SDS011;1095;50.992;6.798;2022-11-15T05:24:19;14.82;;;10.40;;
2177;SDS011;1095;50.992;6.798;2022-11-15T05:26:47;14.30;;;10.10;;
2177;SDS011;1095;50.992;6.798;2022-11-15T05:29:14;14.45;;;11.45;;
2177;SDS011;1095;50.992;6.798;2022-11-15T05:31:40;13.65;;;10.60;;
2177;SDS011;1095;50.992;6.798;2022-11-15T05:34:08;15.15;;;10.75;;
2177;SDS011;1095;50.992;6.798;2022-11-15T05:36:36;15.52;;;11.18;;
2177;SDS011;1095;50.992;6.798;2022-11-15T05:39:04;12.18;;;10.50;;
2177;SDS011;1095;50.992;6.798;2022-11-15T05:41:33;12.48;;;9.20;;
2177;SDS011;1095;50.992;6.798;2022-11-15T05:44:04;11.98;;;10.20;;
2177;SDS011;1095;50.992;6.798;2022-11-15T05:46:35;11.90;;;9.30;;
2177;SDS011;1095;50.992;6.798;2022-11-15T05:49:04;10.55;;;9.43;;
2177;SDS011;1095;50.992;6.798;2022-11-15T05:51:36;11.20;;;9.40;;
2177;SDS011;1095;50.992;6.798;2022-11-15T05:54:04;10.63;;;8.75;;
2177;SDS011;1095;50.992;6.798;2022-11-15T05:56:30;11.90;;;9.88;;
2177;SDS011;1095;50.992;6.798;2022-11-15T05:58:58;11.20;;;9.35;;
2177;SDS011;1095;50.992;6.798;2022-11-15T06:01:26;13.77;;;10.05;;
2177;SDS011;1095;50.992;6.798;2022-11-15T06:03:53;11.55;;;9.20;;
2177;SDS011;1095;50.992;6.798;2022-11-15T06:06:20;12.85;;;9.85;;
2177;SDS011;1095;50.992;6.798;2022-11-15T06:08:47;12.98;;;10.25;;
2177;SDS011;1095;50.992;6.798;2022-11-15T06:11:14;12.82;;;10.52;;
2177;SDS011;1095;50.992;6.798;2022-11-15T06:13:40;13.07;;;10.32;;
2177;SDS011;1095;50.992;6.798;2022-11-15T06:16:07;14.88;;;10.25;;
2177;SDS011;1095;50.992;6.798;2022-11-15T06:18:35;13.48;;;9.95;;
2177;SDS011;1095;50.992;6.798;2022-11-15T06:21:03;15.90;;;10.95;;
2177;SDS011;1095;50.992;6.798;2022-11-15T06:23:31;14.73;;;9.48;;
2177;SDS011;1095;50.992;6.798;2022-11-15T06:25:59;15.40;;;10.73;;
2177;SDS011;1095;50.992;6.798;2022-11-15T06:28:27;12.68;;;9.75;;
2177;SDS011;1095;50.992;6.798;2022-11-15T06:30:54;13.82;;;10.73;;
2177;SDS011;1095;50.992;6.798;2022-11-15T06:33:22;15.35;;;9.10;;
2177;SDS011;1095;50.992;6.798;2022-11-15T06:35:50;11.60;;;9.65;;
2177;SDS011;1095;50.992;6.798;2022-11-15T06:38:16;10.88;;;8.82;;
2177;SDS011;1095;50.992;6.798;2022-11-15T06:40:43;11.68;;;8.98;;
2177;SDS011;1095;50.992;6.798;2022-11-15T06:43:09;12.05;;;9.13;;
2177;SDS011;1095;50.992;6.798;2022-11-15T06:45:36;12.60;;;9.13;;
2177;SDS011;1095;50.992;6.798;2022-11-15T06:48:03;12.07;;;8.85;;
2177;SDS011;1095;50.992;6.798;2022-11-15T06:50:30;11.65;;;8.82;;
2177;SDS011;1095;50.992;6.798;2022-11-15T06:53:01;11.65;;;8.85;;
2177;SDS011;1095;50.992;6.798;2022-11-15T06:55:29;19.70;;;14.15;;
2177;SDS011;1095;50.992;6.798;2022-11-15T06:57:56;19.70;;;15.15;;
2177;SDS011;1095;50.992;6.798;2022-11-15T07:00:22;13.93;;;11.40;;
2177;SDS011;1095;50.992;6.798;2022-11-15T07:02:49;12.00;;;9.30;;
2177;SDS011;1095;50.992;6.798;2022-11-15T07:05:16;13.55;;;9.30;;
2177;SDS011;1095;50.992;6.798;2022-11-15T07:07:43;14.55;;;10.50;;
2177;SDS011;1095;50.992;6.798;2022-11-15T07:10:11;11.57;;;8.93;;
2177;SDS011;1095;50.992;6.798;2022-11-15T07:12:37;12.20;;;9.77;;
2177;SDS011;1095;50.992;6.798;2022-11-15T07:15:04;12.20;;;9.95;;
2177;SDS011;1095;50.992;6.798;2022-11-15T07:17:32;16.00;;;10.13;;
2177;SDS011;1095;50.992;6.798;2022-11-15T07:19:58;11.98;;;9.80;;
2177;SDS011;1095;50.992;6.798;2022-11-15T07:22:25;12.43;;;10.00;;
2177;SDS011;1095;50.992;6.798;2022-11-15T07:24:51;11.65;;;9.52;;
2177;SDS011;1095;50.992;6.798;2022-11-15T07:27:20;10.45;;;8.13;;
2177;SDS011;1095;50.992;6.798;2022-11-15T07:29:47;8.20;;;6.72;;
2177;SDS011;1095;50.992;6.798;2022-11-15T07:32:13;10.80;;;6.85;;
2177;SDS011;1095;50.992;6.798;2022-11-15T07:34:40;9.32;;;6.65;;
2177;SDS011;1095;50.992;6.798;2022-11-15T07:37:06;7.72;;;6.13;;
2177;SDS011;1095;50.992;6.798;2022-11-15T07:39:33;8.57;;;6.55;;
2177;SDS011;1095;50.992;6.798;2022-11-15T07:42:00;10.20;;;7.25;;
2177;SDS011;1095;50.992;6.798;2022-11-15T07:47:11;8.07;;;6.13;;
2177;SDS011;1095;50.992;6.798;2022-11-15T07:49:37;8.98;;;6.35;;
2177;SDS011;1095;50.992;6.798;2022-11-15T07:52:04;7.53;;;5.38;;
2177;SDS011;1095;50.992;6.798;2022-11-15T07:54:31;9.48;;;7.22;;
2177;SDS011;1095;50.992;6.798;2022-11-15T07:56:57;7.82;;;5.03;;
2177;SDS011;1095;50.992;6.798;2022-11-15T07:59:24;8.52;;;4.70;;
2177;SDS011;1095;50.992;6.798;2022-11-15T08:01:52;7.28;;;4.97;;
2177;SDS011;1095;50.992;6.798;2022-11-15T08:04:19;7.20;;;5.82;;
2177;SDS011;1095;50.992;6.798;2022-11-15T08:06:45;5.80;;;4.47;;
2177;SDS011;1095;50.992;6.798;2022-11-15T08:09:12;8.00;;;5.10;;
2177;SDS011;1095;50.992;6.798;2022-11-15T08:11:38;9.77;;;5.25;;
2177;SDS011;1095;50.992;6.798;2022-11-15T08:14:05;7.38;;;4.90;;
2177;SDS011;1095;50.992;6.798;2022-11-15T08:16:32;7.75;;;4.78;;
2177;SDS011;1095;50.992;6.798;2022-11-15T08:19:00;10.43;;;5.13;;
2177;SDS011;1095;50.992;6.798;2022-11-15T08:21:26;7.00;;;5.40;;
2177;SDS011;1095;50.992;6.798;2022-11-15T08:23:53;7.13;;;5.10;;
2177;SDS011;1095;50.992;6.798;2022-11-15T08:26:19;8.15;;;5.38;;
2177;SDS011;1095;50.992;6.798;2022-11-15T08:28:46;9.68;;;5.57;;
2177;SDS011;1095;50.992;6.798;2022-11-15T08:31:14;8.23;;;5.65;;
2177;SDS011;1095;50.992;6.798;2022-11-15T08:33:41;6.55;;;5.15;;
2177;SDS011;1095;50.992;6.798;2022-11-15T08:36:11;9.38;;;5.30;;
2177;SDS011;1095;50.992;6.798;2022-11-15T08:38:40;7.30;;;5.25;;
2177;SDS011;1095;50.992;6.798;2022-11-15T08:41:06;7.72;;;5.18;;
2177;SDS011;1095;50.992;6.798;2022-11-15T08:43:36;6.80;;;5.07;;
2177;SDS011;1095;50.992;6.798;2022-11-15T08:46:03;7.40;;;5.32;;
2177;SDS011;1095;50.992;6.798;2022-11-15T08:48:30;7.53;;;4.82;;
2177;SDS011;1095;50.992;6.798;2022-11-15T08:50:56;6.38;;;4.63;;
2177;SDS011;1095;50.992;6.798;2022-11-15T08:53:27;7.63;;;5.00;;
2177;SDS011;1095;50.992;6.798;2022-11-15T08:55:54;7.50;;;4.72;;
2177;SDS011;1095;50.992;6.798;2022-11-15T08:58:21;6.38;;;4.90;;
2177;SDS011;1095;50.992;6.798;2022-11-15T09:00:47;5.95;;;4.45;;
2177;SDS011;1095;50.992;6.798;2022-11-15T09:03:14;6.82;;;4.50;;
2177;SDS011;1095;50.992;6.798;2022-11-15T09:05:41;7.20;;;4.55;;
2177;SDS011;1095;50.992;6.798;2022-11-15T09:08:07;7.70;;;4.40;;
2177;SDS011;1095;50.992;6.798;2022-11-15T09:10:36;9.43;;;5.40;;
2177;SDS011;1095;50.992;6.798;2022-11-15T09:13:02;6.22;;;4.68;;
2177;SDS011;1095;50.992;6.798;2022-11-15T09:15:29;7.93;;;4.90;;
2177;SDS011;1095;50.992;6.798;2022-11-15T09:17:57;6.53;;;4.57;;
2177;SDS011;1095;50.992;6.798;2022-11-15T09:20:24;7.43;;;4.78;;
2177;SDS011;1095;50.992;6.798;2022-11-15T09:22:51;5.45;;;4.32;;
2177;SDS011;1095;50.992;6.798;2022-11-15T09:25:17;5.72;;;4.10;;
2177;SDS011;1095;50.992;6.798;2022-11-15T09:27:45;4.30;;;3.70;;
2177;SDS011;1095;50.992;6.798;2022-11-15T09:30:12;12.85;;;5.43;;
2177;SDS011;1095;50.992;6.798;2022-11-15T09:32:39;5.70;;;4.00;;
2177;SDS011;1095;50.992;6.798;2022-11-15T09:35:06;6.55;;;4.10;;
2177;SDS011;1095;50.992;6.798;2022-11-15T09:37:33;6.10;;;4.05;;
2177;SDS011;1095;50.992;6.798;2022-11-15T09:39:59;11.10;;;3.88;;
2177;SDS011;1095;50.992;6.798;2022-11-15T09:42:30;3.75;;;3.38;;
2177;SDS011;1095;50.992;6.798;2022-11-15T09:45:17;7.07;;;3.35;;
2177;SDS011;1095;50.992;6.798;2022-11-15T09:47:57;3.90;;;3.00;;
2177;SDS011;1095;50.992;6.798;2022-11-15T09:50:35;7.13;;;2.63;;
2177;SDS011;1095;50.992;6.798;2022-11-15T09:53:04;6.88;;;3.00;;
2177;SDS011;1095;50.992;6.798;2022-11-15T09:55:39;4.22;;;2.78;;
2177;SDS011;1095;50.992;6.798;2022-11-15T09:58:16;8.48;;;3.10;;
2177;SDS011;1095;50.992;6.798;2022-11-15T10:00:52;3.80;;;2.72;;
2177;SDS011;1095;50.992;6.798;2022-11-15T10:03:21;5.93;;;3.00;;
2177;SDS011;1095;50.992;6.798;2022-11-15T10:05:53;4.97;;;2.63;;
2177;SDS011;1095;50.992;6.798;2022-11-15T10:08:37;3.35;;;2.47;;
2177;SDS011;1095;50.992;6.798;2022-11-15T10:11:14;7.80;;;2.72;;
2177;SDS011;1095;50.992;6.798;2022-11-15T10:13:44;5.63;;;2.70;;
2177;SDS011;1095;50.992;6.798;2022-11-15T10:16:16;4.72;;;2.10;;
2177;SDS011;1095;50.992;6.798;2022-11-15T10:19:30;3.75;;;2.50;;
2177;SDS011;1095;50.992;6.798;2022-11-15T10:22:20;5.57;;;2.65;;
2177;SDS011;1095;50.992;6.798;2022-11-15T10:28:00;4.93;;;2.22;;
2177;SDS011;1095;50.992;6.798;2022-11-15T10:31:00;5.63;;;2.50;;
2177;SDS011;1095;50.992;6.798;2022-11-15T10:33:29;2.38;;;2.13;;
2177;SDS011;1095;50.992;6.798;2022-11-15T10:36:18;4.53;;;2.42;;
2177;SDS011;1095;50.992;6.798;2022-11-15T10:38:56;6.05;;;2.42;;
2177;SDS011;1095;50.992;6.798;2022-11-15T10:47:21;5.97;;;2.60;;
2177;SDS011;1095;50.992;6.798;2022-11-15T10:50:11;10.45;;;2.38;;
2177;SDS011;1095;50.992;6.798;2022-11-15T10:53:03;8.73;;;3.10;;
2177;SDS011;1095;50.992;6.798;2022-11-15T10:55:53;4.28;;;2.17;;
2177;SDS011;1095;50.992;6.798;2022-11-15T10:58:57;8.35;;;2.80;;
2177;SDS011;1095;50.992;6.798;2022-11-15T11:01:45;5.15;;;2.10;;
2177;SDS011;1095;50.992;6.798;2022-11-15T11:04:17;9.02;;;2.50;;
2177;SDS011;1095;50.992;6.798;2022-11-15T11:06:53;3.65;;;1.83;;
2177;SDS011;1095;50.992;6.798;2022-11-15T11:09:30;4.05;;;2.20;;
2177;SDS011;1095;50.992;6.798;2022-11-15T11:11:58;6.68;;;1.98;;
2177;SDS011;1095;50.992;6.798;2022-11-15T11:14:27;7.32;;;2.00;;
2177;SDS011;1095;50.992;6.798;2022-11-15T11:17:01;9.02;;;2.25;;
2177;SDS011;1095;50.992;6.798;2022-11-15T11:19:41;7.47;;;2.38;;
2177;SDS011;1095;50.992;6.798;2022-11-15T11:22:29;12.15;;;3.95;;
2177;SDS011;1095;50.992;6.798;2022-11-15T11:25:14;5.88;;;2.72;;
2177;SDS011;1095;50.992;6.798;2022-11-15T11:27:59;6.38;;;2.45;;
2177;SDS011;1095;50.992;6.798;2022-11-15T11:30:47;7.45;;;2.20;;
2177;SDS011;1095;50.992;6.798;2022-11-15T11:33:30;3.25;;;1.58;;
2177;SDS011;1095;50.992;6.798;2022-11-15T11:36:03;4.50;;;2.03;;
2177;SDS011;1095;50.992;6.798;2022-11-15T11:38:47;8.82;;;2.20;;
2177;SDS011;1095;50.992;6.798;2022-11-15T11:41:39;4.47;;;3.00;;
2177;SDS011;1095;50.992;6.798;2022-11-15T11:44:15;5.75;;;2.08;;
2177;SDS011;1095;50.992;6.798;2022-11-15T11:46:52;4.13;;;1.90;;
2177;SDS011;1095;50.992;6.798;2022-11-15T11:49:23;4.32;;;2.35;;
2177;SDS011;1095;50.992;6.798;2022-11-15T11:51:54;4.25;;;2.25;;
2177;SDS011;1095;50.992;6.798;2022-11-15T11:54:34;8.60;;;2.42;;
2177;SDS011;1095;50.992;6.798;2022-11-15T11:57:19;5.68;;;2.28;;
2177;SDS011;1095;50.992;6.798;2022-11-15T12:00:02;6.63;;;2.22;;
2177;SDS011;1095;50.992;6.798;2022-11-15T12:02:34;6.45;;;2.30;;
2177;SDS011;1095;50.992;6.798;2022-11-15T12:05:10;7.90;;;2.55;;
2177;SDS011;1095;50.992;6.798;2022-11-15T12:10:32;9.70;;;3.38;;
2177;SDS011;1095;50.992;6.798;2022-11-15T12:13:10;8.95;;;2.40;;
2177;SDS011;1095;50.992;6.798;2022-11-15T12:15:45;4.97;;;2.10;;
2177;SDS011;1095;50.992;6.798;2022-11-15T12:18:21;3.75;;;1.90;;
2177;SDS011;1095;50.992;6.798;2022-11-15T12:20:50;7.13;;;2.10;;
2177;SDS011;1095;50.992;6.798;2022-11-15T12:23:20;5.65;;;2.58;;
2177;SDS011;1095;50.992;6.798;2022-11-15T12:25:57;2.38;;;1.67;;
2177;SDS011;1095;50.992;6.798;2022-11-15T12:28:45;6.65;;;2.50;;
2177;SDS011;1095;50.992;6.798;2022-11-15T12:31:21;8.55;;;2.70;;
2177;SDS011;1095;50.992;6.798;2022-11-15T12:33:56;7.40;;;2.53;;
2177;SDS011;1095;50.992;6.798;2022-11-15T12:39:22;8.18;;;2.67;;
2177;SDS011;1095;50.992;6.798;2022-11-15T12:42:41;8.60;;;2.60;;
2177;SDS011;1095;50.992;6.798;2022-11-15T12:45:24;8.48;;;2.97;;
2177;SDS011;1095;50.992;6.798;2022-11-15T12:47:55;4.78;;;2.05;;
2177;SDS011;1095;50.992;6.798;2022-11-15T12:50:52;10.43;;;2.40;;
2177;SDS011;1095;50.992;6.798;2022-11-15T12:53:25;16.27;;;8.18;;
2177;SDS011;1095;50.992;6.798;2022-11-15T12:56:08;30.08;;;17.63;;
2177;SDS011;1095;50.992;6.798;2022-11-15T12:58:59;19.92;;;17.05;;
2177;SDS011;1095;50.992;6.798;2022-11-15T13:02:00;14.20;;;11.63;;
2177;SDS011;1095;50.992;6.798;2022-11-15T13:04:36;4.75;;;2.72;;
2177;SDS011;1095;50.992;6.798;2022-11-15T13:07:07;3.35;;;2.25;;
2177;SDS011;1095;50.992;6.798;2022-11-15T13:13:01;6.83;;;3.47;;
2177;SDS011;1095;50.992;6.798;2022-11-15T13:15:40;4.38;;;2.38;;
2177;SDS011;1095;50.992;6.798;2022-11-15T13:18:34;4.93;;;2.53;;
2177;SDS011;1095;50.992;6.798;2022-11-15T13:21:17;5.68;;;3.00;;
2177;SDS011;1095;50.992;6.798;2022-11-15T13:26:53;6.85;;;4.32;;
2177;SDS011;1095;50.992;6.798;2022-11-15T13:29:24;6.30;;;3.13;;
2177;SDS011;1095;50.992;6.798;2022-11-15T13:31:57;9.90;;;3.60;;
2177;SDS011;1095;50.992;6.798;2022-11-15T13:34:26;10.23;;;3.70;;
2177;SDS011;1095;50.992;6.798;2022-11-15T13:39:38;8.48;;;5.38;;
2177;SDS011;1095;50.992;6.798;2022-11-15T13:42:24;10.57;;;4.90;;
2177;SDS011;1095;50.992;6.798;2022-11-15T13:44:55;5.90;;;3.90;;
2177;SDS011;1095;50.992;6.798;2022-11-15T13:50:25;7.85;;;4.72;;
2177;SDS011;1095;50.992;6.798;2022-11-15T13:53:02;6.68;;;4.10;;
2177;SDS011;1095;50.992;6.798;2022-11-15T13:55:35;14.15;;;5.18;;
2177;SDS011;1095;50.992;6.798;2022-11-15T13:58:09;11.55;;;4.57;;
2177;SDS011;1095;50.992;6.798;2022-11-15T14:00:57;11.40;;;6.95;;
2177;SDS011;1095;50.992;6.798;2022-11-15T14:03:54;23.48;;;21.13;;
2177;SDS011;1095;50.992;6.798;2022-11-15T14:06:35;8.45;;;6.70;;
2177;SDS011;1095;50.992;6.798;2022-11-15T14:12:27;5.93;;;4.60;;
2177;SDS011;1095;50.992;6.798;2022-11-15T14:15:18;9.10;;;6.80;;
2177;SDS011;1095;50.992;6.798;2022-11-15T14:17:51;5.63;;;4.18;;
2177;SDS011;1095;50.992;6.798;2022-11-15T14:20:30;9.80;;;4.68;;
2177;SDS011;1095;50.992;6.798;2022-11-15T14:22:59;10.20;;;4.50;;
2177;SDS011;1095;50.992;6.798;2022-11-15T14:25:27;6.45;;;4.40;;
2177;SDS011;1095;50.992;6.798;2022-11-15T14:28:08;5.32;;;4.57;;
2177;SDS011;1095;50.992;6.798;2022-11-15T14:30:54;10.77;;;5.28;;
2177;SDS011;1095;50.992;6.798;2022-11-15T14:33:23;7.18;;;4.82;;
2177;SDS011;1095;50.992;6.798;2022-11-15T14:35:55;8.55;;;6.65;;
2177;SDS011;1095;50.992;6.798;2022-11-15T14:38:24;8.60;;;4.80;;
2177;SDS011;1095;50.992;6.798;2022-11-15T14:40:51;9.52;;;5.07;;
2177;SDS011;1095;50.992;6.798;2022-11-15T14:46:03;7.15;;;4.93;;
2177;SDS011;1095;50.992;6.798;2022-11-15T14:57:21;9.02;;;7.40;;
2177;SDS011;1095;50.992;6.798;2022-11-15T14:59:50;8.00;;;7.13;;
2177;SDS011;1095;50.992;6.798;2022-11-15T15:02:20;8.38;;;6.00;;
2177;SDS011;1095;50.992;6.798;2022-11-15T15:04:50;10.52;;;7.10;;
2177;SDS011;1095;50.992;6.798;2022-11-15T15:07:17;17.25;;;10.00;;
2177;SDS011;1095;50.992;6.798;2022-11-15T15:09:44;15.38;;;11.10;;
2177;SDS011;1095;50.992;6.798;2022-11-15T15:12:16;8.82;;;7.28;;
2177;SDS011;1095;50.992;6.798;2022-11-15T15:14:45;8.57;;;6.07;;
2177;SDS011;1095;50.992;6.798;2022-11-15T15:17:13;8.60;;;7.72;;
2177;SDS011;1095;50.992;6.798;2022-11-15T15:19:40;7.50;;;5.85;;
2177;SDS011;1095;50.992;6.798;2022-11-15T15:22:11;8.18;;;5.65;;
2177;SDS011;1095;50.992;6.798;2022-11-15T15:24:40;6.25;;;5.45;;
2177;SDS011;1095;50.992;6.798;2022-11-15T15:27:07;9.55;;;6.03;;
2177;SDS011;1095;50.992;6.798;2022-11-15T15:29:36;11.13;;;5.80;;
2177;SDS011;1095;50.992;6.798;2022-11-15T15:32:05;10.32;;;5.70;;
2177;SDS011;1095;50.992;6.798;2022-11-15T15:34:33;8.15;;;4.90;;
2177;SDS011;1095;50.992;6.798;2022-11-15T15:37:09;8.32;;;5.05;;
2177;SDS011;1095;50.992;6.798;2022-11-15T15:43:42;6.93;;;4.85;;
2177;SDS011;1095;50.992;6.798;2022-11-15T15:49:27;9.77;;;6.63;;
2177;SDS011;1095;50.992;6.798;2022-11-15T15:51:56;9.13;;;5.35;;
2177;SDS011;1095;50.992;6.798;2022-11-15T15:54:26;9.63;;;6.82;;
2177;SDS011;1095;50.992;6.798;2022-11-15T15:56:52;7.07;;;5.20;;
2177;SDS011;1095;50.992;6.798;2022-11-15T15:59:19;9.60;;;6.05;;
2177;SDS011;1095;50.992;6.798;2022-11-15T16:01:46;10.13;;;6.22;;
2177;SDS011;1095;50.992;6.798;2022-11-15T16:04:15;8.88;;;6.10;;
2177;SDS011;1095;50.992;6.798;2022-11-15T16:06:58;9.68;;;7.05;;
2177;SDS011;1095;50.992;6.798;2022-11-15T16:09:26;11.75;;;6.70;;
2177;SDS011;1095;50.992;6.798;2022-11-15T16:12:07;23.10;;;16.20;;
2177;SDS011;1095;50.992;6.798;2022-11-15T16:14:33;5.60;;;4.65;;
2177;SDS011;1095;50.992;6.798;2022-11-15T16:17:00;8.18;;;6.55;;
2177;SDS011;1095;50.992;6.798;2022-11-15T16:19:26;9.27;;;7.40;;
2177;SDS011;1095;50.992;6.798;2022-11-15T16:21:53;14.77;;;8.05;;
2177;SDS011;1095;50.992;6.798;2022-11-15T16:24:22;5.93;;;4.20;;
2177;SDS011;1095;50.992;6.798;2022-11-15T16:26:49;9.02;;;6.82;;